createdAt,value
2022-08-03T00:00:37.702Z,68.93
2022-08-03T00:04:33.629Z,68.27
2022-08-03T00:08:26.688Z,68.32
2022-08-03T00:12:19.064Z,68.53
2022-08-03T00:28:03.718Z,69.35
2022-08-03T00:32:00.197Z,69.97
2022-08-03T00:35:54.371Z,69.88
2022-08-03T00:58:49.665Z,70.42
2022-08-03T01:02:41.490Z,69.58
2022-08-03T01:06:35.166Z,69.84
2022-08-03T01:10:36.977Z,69.60
2022-08-03T01:14:32.910Z,69.49
2022-08-03T01:18:43.473Z,68.93
2022-08-03T02:02:15.370Z,71.12
2022-08-03T02:05:44.010Z,71.63
2022-08-03T02:09:36.965Z,72.01
2022-08-03T02:13:29.835Z,72.09
2022-08-03T02:32:24.526Z,72.60
2022-08-03T02:36:16.192Z,72.90
2022-08-03T02:40:11.208Z,72.58
2022-08-03T02:56:07.037Z,72.55
2022-08-03T02:59:57.368Z,72.61
2022-08-03T03:07:51.685Z,72.58
2022-08-03T03:11:45.026Z,72.65
2022-08-03T03:15:38.154Z,72.56
2022-08-03T03:34:34.277Z,73.47
2022-08-03T03:38:26.719Z,73.32
2022-08-03T03:42:11.893Z,73.64
2022-08-03T03:46:03.214Z,73.69
2022-08-03T03:49:56.878Z,73.57
2022-08-03T04:05:42.984Z,73.22
2022-08-03T04:09:36.156Z,73.64
2022-08-03T04:13:29.286Z,73.93
2022-08-03T04:17:26.427Z,74.35
2022-08-03T04:36:35.663Z,74.76
2022-08-03T04:40:29.972Z,74.56
2022-08-03T04:44:28.275Z,75.06
2022-08-03T04:48:21.637Z,74.95
2022-08-03T04:52:15.252Z,74.86
2022-08-03T04:55:56.526Z,74.70
2022-08-03T05:19:43.881Z,73.78
2022-08-03T05:23:26.464Z,73.67
2022-08-03T05:27:17.089Z,73.74
2022-08-03T05:31:06.469Z,73.38
2022-08-03T05:46:44.222Z,72.47
2022-08-03T05:50:28.393Z,72.44
2022-08-03T05:54:20.535Z,71.95
2022-08-03T05:58:12.406Z,72.15
2022-08-03T06:14:02.360Z,70.63
2022-08-03T06:17:58.797Z,69.58
2022-08-03T06:21:53.450Z,68.82
2022-08-03T06:25:33.918Z,69.09
2022-08-03T06:48:43.408Z,63.92
2022-08-03T06:52:38.059Z,63.34
2022-08-03T06:56:12.758Z,62.38
2022-08-03T07:00:08.338Z,61.40
2022-08-03T07:04:03.873Z,59.63
2022-08-03T07:55:11.109Z,41.43
2022-08-03T08:01:48.778Z,40.26
2022-08-03T08:05:00.052Z,40.54
2022-08-03T08:08:01.865Z,40.53
2022-08-03T08:10:57.958Z,39.67
2022-08-03T08:14:05.260Z,39.97
2022-08-03T08:16:51.270Z,37.05
2022-08-03T08:19:54.876Z,38.12
2022-08-03T08:22:32.749Z,37.06
2022-08-03T08:25:12.550Z,34.17
2022-08-03T08:28:22.307Z,34.65
2022-08-03T08:30:56.841Z,34.28
2022-08-03T08:34:04.739Z,34.35
2022-08-03T08:37:01.046Z,34.23
2022-08-03T08:39:51.181Z,33.78
2022-08-03T08:42:32.463Z,33.46
2022-08-03T08:45:18.899Z,34.07
2022-08-03T08:48:14.011Z,32.45
2022-08-03T08:50:46.512Z,32.04
2022-08-03T08:53:34.174Z,31.14
2022-08-03T08:56:18.454Z,31.40
2022-08-03T08:59:00.172Z,31.45
2022-08-03T09:01:46.054Z,31.90
2022-08-03T09:04:20.745Z,30.08
2022-08-03T09:07:18.034Z,30.41
2022-08-03T09:10:11.124Z,30.59
2022-08-03T09:12:53.163Z,31.54
2022-08-03T09:15:34.259Z,31.43
2022-08-03T09:18:12.658Z,31.25
2022-08-03T09:20:48.782Z,30.88
2022-08-03T09:24:00.606Z,31.50
2022-08-03T09:26:30.958Z,30.73
2022-08-03T09:29:11.190Z,30.69
2022-08-03T09:31:47.255Z,30.61
2022-08-03T09:34:28.877Z,29.48
2022-08-03T09:37:02.813Z,28.73
2022-08-03T09:39:42.486Z,29.02
2022-08-03T09:42:25.532Z,28.39
2022-08-03T09:44:58.534Z,27.89
2022-08-03T09:47:44.611Z,27.27
2022-08-03T09:50:21.571Z,27.83
2022-08-03T09:52:53.002Z,27.13
2022-08-03T09:56:34.031Z,26.16
2022-08-03T09:58:21.133Z,26.93
2022-08-03T10:01:23.687Z,25.93
2022-08-03T10:04:03.933Z,26.82
2022-08-03T10:06:42.753Z,25.60
2022-08-03T10:09:17.402Z,25.70
2022-08-03T10:11:57.977Z,25.38
2022-08-03T10:14:32.884Z,24.94
2022-08-03T10:17:03.917Z,25.25
2022-08-03T10:19:38.296Z,25.43
2022-08-03T10:22:22.936Z,25.73
2022-08-03T10:25:12.153Z,25.55
2022-08-03T10:27:48.574Z,25.63
2022-08-03T10:30:18.649Z,25.09
2022-08-03T10:33:51.765Z,25.81
2022-08-03T10:36:20.041Z,24.39
2022-08-03T10:38:53.958Z,24.22
2022-08-03T10:41:46.866Z,23.67
2022-08-03T10:44:24.890Z,24.67
2022-08-03T10:47:08.598Z,24.04
2022-08-03T10:49:39.379Z,23.74
2022-08-03T10:52:32.500Z,23.00
2022-08-03T10:55:54.328Z,22.98
2022-08-03T10:59:00.235Z,23.88
2022-08-03T11:02:01.295Z,24.09
2022-08-03T11:04:31.819Z,23.17
2022-08-03T11:07:26.236Z,23.18
2022-08-03T11:09:57.921Z,22.54
2022-08-03T11:12:32.245Z,22.96
2022-08-03T11:15:09.114Z,23.24
2022-08-03T11:18:10.979Z,21.69
2022-08-03T11:20:53.393Z,22.87
2022-08-03T11:24:05.457Z,20.70
2022-08-03T11:26:39.865Z,22.58
2022-08-03T11:29:32.370Z,22.29
2022-08-03T11:32:02.490Z,21.92
2022-08-03T11:34:32.431Z,22.63
2022-08-03T11:37:28.582Z,21.57
2022-08-03T11:40:02.693Z,20.86
2022-08-03T11:42:36.923Z,20.00
2022-08-03T11:45:09.473Z,19.20
2022-08-03T11:47:50.252Z,21.13
2022-08-03T11:50:22.517Z,20.82
2022-08-03T11:52:54.501Z,20.28
2022-08-03T11:55:28.986Z,20.36
2022-08-03T11:59:09.362Z,20.31
2022-08-03T12:00:52.622Z,20.99
2022-08-03T12:03:23.137Z,20.76
2022-08-03T12:05:54.715Z,21.48
2022-08-03T12:08:34.229Z,20.20
2022-08-03T12:11:07.187Z,19.66
2022-08-03T12:13:56.725Z,20.19
2022-08-03T12:16:34.213Z,21.39
2022-08-03T12:19:07.173Z,21.85
2022-08-03T12:21:57.098Z,21.08
2022-08-03T12:24:40.805Z,21.06
2022-08-03T12:27:12.981Z,21.77
2022-08-03T12:29:43.169Z,21.41
2022-08-03T12:32:29.657Z,20.61
2022-08-03T12:35:02.033Z,21.68
2022-08-03T12:37:32.906Z,21.98
2022-08-03T12:40:10.498Z,21.04
2022-08-03T12:42:41.574Z,20.76
2022-08-03T12:45:21.064Z,20.83
2022-08-03T12:47:55.298Z,20.03
2022-08-03T12:50:31.787Z,21.00
2022-08-03T12:53:05.542Z,21.61
2022-08-03T12:56:05.382Z,21.18
2022-08-03T12:58:34.533Z,20.24
2022-08-03T13:01:09.688Z,19.87
2022-08-03T13:03:49.853Z,19.75
2022-08-03T13:06:29.373Z,20.64
2022-08-03T13:09:07.525Z,19.93
2022-08-03T13:11:53.636Z,20.07
2022-08-03T13:14:27.850Z,20.53
2022-08-03T13:16:58.009Z,20.91
2022-08-03T13:19:28.665Z,22.01
2022-08-03T13:22:04.001Z,20.55
2022-08-03T13:24:34.895Z,20.91
2022-08-03T13:27:31.119Z,21.20
2022-08-03T13:29:59.920Z,20.99
2022-08-03T13:32:30.209Z,20.75
2022-08-03T13:34:59.860Z,20.81
2022-08-03T13:37:32.636Z,20.36
2022-08-03T13:40:05.635Z,19.56
2022-08-03T13:42:38.843Z,20.91
2022-08-03T13:45:10.739Z,20.56
2022-08-03T13:47:41.100Z,20.89
2022-08-03T13:50:09.983Z,21.02
2022-08-03T13:52:39.782Z,20.82
2022-08-03T13:55:10.380Z,20.07
2022-08-03T13:58:02.187Z,20.50
2022-08-03T14:00:31.918Z,20.62
2022-08-03T14:03:13.164Z,20.65
2022-08-03T14:05:44.808Z,21.04
2022-08-03T14:08:17.570Z,20.54
2022-08-03T14:10:47.807Z,21.24
2022-08-03T14:13:18.335Z,20.81
2022-08-03T14:15:50.887Z,20.61
2022-08-03T14:18:28.915Z,20.23
2022-08-03T14:21:06.261Z,20.55
2022-08-03T14:23:38.240Z,21.31
2022-08-03T14:26:09.923Z,20.78
2022-08-03T14:28:39.777Z,20.85
2022-08-03T14:32:09.153Z,20.54
2022-08-03T14:34:01.241Z,20.47
2022-08-03T14:36:31.308Z,21.28
2022-08-03T14:39:05.448Z,21.76
2022-08-03T14:41:37.051Z,21.55
2022-08-03T14:44:08.536Z,21.90
2022-08-03T14:46:40.044Z,22.46
2022-08-03T14:50:34.298Z,22.28
2022-08-03T14:52:01.318Z,22.46
2022-08-03T14:54:32.004Z,22.25
2022-08-03T14:57:02.530Z,22.17
2022-08-03T14:59:55.701Z,22.27
2022-08-03T15:02:24.627Z,22.24
2022-08-03T15:04:54.811Z,22.44
2022-08-03T15:07:25.123Z,22.38
2022-08-03T15:09:55.457Z,22.18
2022-08-03T15:12:26.323Z,22.75
2022-08-03T15:14:56.812Z,22.91
2022-08-03T15:17:26.999Z,22.65
2022-08-03T15:20:03.917Z,23.03
2022-08-03T15:22:48.501Z,24.21
2022-08-03T15:26:04.211Z,23.91
2022-08-03T15:28:11.461Z,23.73
2022-08-03T15:30:41.479Z,24.01
2022-08-03T15:33:11.319Z,24.16
2022-08-03T15:35:42.010Z,24.03
2022-08-03T15:38:12.283Z,23.85
2022-08-03T15:40:42.482Z,24.08
2022-08-03T15:43:12.681Z,24.63
2022-08-03T15:45:45.310Z,23.88
2022-08-03T15:48:15.452Z,23.97
2022-08-03T15:50:45.452Z,24.08
2022-08-03T15:53:14.428Z,23.69
2022-08-03T15:55:44.539Z,23.64
2022-08-03T15:59:10.950Z,23.69
2022-08-03T16:01:08.717Z,24.12
2022-08-03T16:03:38.805Z,24.44
2022-08-03T16:06:09.576Z,24.76
2022-08-03T16:08:39.872Z,24.52
2022-08-03T16:11:10.912Z,24.78
2022-08-03T16:14:13.023Z,24.53
2022-08-03T16:16:42.047Z,24.08
2022-08-03T16:19:12.228Z,24.31
2022-08-03T16:21:48.660Z,24.63
2022-08-03T16:24:23.105Z,24.11
2022-08-03T16:27:00.570Z,24.22
2022-08-03T16:29:30.215Z,24.64
2022-08-03T16:32:09.523Z,24.54
2022-08-03T16:34:40.559Z,24.43
2022-08-03T16:37:35.679Z,24.67
2022-08-03T16:40:02.487Z,24.97
2022-08-03T16:42:31.171Z,25.15
2022-08-03T16:45:02.512Z,25.44
2022-08-03T16:47:33.664Z,25.19
2022-08-03T16:50:11.902Z,25.11
2022-08-03T16:52:47.245Z,25.54
2022-08-03T16:55:43.381Z,25.51
2022-08-03T16:58:18.384Z,25.45
2022-08-03T17:00:55.177Z,26.12
2022-08-03T17:03:27.787Z,26.05
2022-08-03T17:06:07.594Z,26.13
2022-08-03T17:08:55.078Z,26.59
2022-08-03T17:11:28.105Z,26.84
2022-08-03T17:14:07.738Z,27.57
2022-08-03T17:16:52.018Z,27.48
2022-08-03T17:19:47.535Z,28.13
2022-08-03T17:22:39.495Z,28.38
2022-08-03T17:25:22.050Z,29.73
2022-08-03T17:28:50.747Z,30.75
2022-08-03T17:31:22.874Z,31.99
2022-08-03T17:34:09.558Z,33.03
2022-08-03T17:37:26.880Z,33.77
2022-08-03T17:40:17.449Z,33.38
2022-08-03T17:42:56.855Z,34.43
2022-08-03T17:45:52.866Z,34.39
2022-08-03T17:49:24.513Z,35.39
2022-08-03T17:52:04.251Z,36.44
2022-08-03T17:55:57.652Z,36.65
2022-08-03T17:58:22.050Z,37.10
2022-08-03T18:04:29.912Z,38.21
2022-08-03T18:07:19.387Z,38.67
2022-08-03T18:10:16.283Z,38.86
2022-08-03T18:13:10.280Z,39.30
2022-08-03T18:16:27.767Z,39.69
2022-08-03T18:19:21.460Z,40.19
2022-08-03T18:22:46.629Z,40.76
2022-08-03T18:26:07.160Z,41.12
2022-08-03T18:47:16.331Z,42.48
2022-08-03T18:50:31.616Z,43.59
2022-08-03T18:53:15.526Z,42.40
2022-08-03T18:56:20.563Z,43.31
2022-08-03T18:59:51.438Z,42.97
2022-08-03T19:03:20.376Z,44.09
2022-08-03T19:06:19.731Z,43.12
2022-08-03T19:09:28.348Z,44.53
2022-08-03T19:12:32.376Z,45.18
2022-08-03T19:15:51.270Z,45.67
2022-08-03T19:18:50.842Z,46.15
2022-08-03T19:21:59.181Z,46.13
2022-08-03T19:25:01.936Z,47.57
2022-08-03T19:28:17.289Z,47.26
2022-08-03T19:31:31.200Z,47.85
2022-08-03T19:35:18.976Z,48.50
2022-08-03T19:38:52.525Z,48.78
2022-08-03T19:46:05.028Z,49.29
2022-08-03T19:49:57.079Z,48.37
2022-08-03T19:53:35.208Z,49.13
2022-08-03T19:57:17.388Z,49.57
2022-08-03T20:00:39.377Z,49.87
2022-08-03T20:04:13.145Z,50.51
2022-08-03T20:08:05.739Z,51.75
2022-08-03T20:11:51.211Z,52.32
2022-08-03T20:15:31.564Z,52.58
2022-08-03T20:19:17.938Z,53.73
2022-08-03T20:23:12.605Z,53.35
2022-08-03T20:26:53.386Z,55.06
2022-08-03T20:30:29.306Z,56.09
2022-08-03T20:53:45.714Z,56.86
2022-08-03T20:57:17.388Z,56.87
2022-08-03T21:00:31.607Z,57.66
2022-08-03T21:04:13.827Z,57.93
2022-08-03T21:08:17.351Z,57.74
2022-08-03T21:12:10.310Z,58.57
2022-08-03T21:13:02.695Z,49.57
2022-08-03T21:13:04.040Z,37.77
2022-08-03T21:31:48.039Z,60.27
2022-08-03T21:35:39.585Z,60.34
2022-08-03T21:39:32.098Z,60.37
2022-08-03T21:43:24.128Z,60.52
2022-08-03T21:47:17.578Z,60.56
2022-08-03T22:10:59.810Z,61.12
2022-08-03T22:14:49.691Z,61.18
2022-08-03T22:18:49.807Z,61.24
2022-08-03T22:22:41.842Z,61.84
2022-08-03T22:26:48.620Z,62.16
2022-08-03T22:30:39.188Z,62.88
2022-08-03T22:57:56.010Z,63.91
2022-08-03T23:01:51.075Z,64.16
2022-08-03T23:06:02.593Z,64.72
2022-08-03T23:09:56.057Z,65.18
2022-08-03T23:33:24.221Z,64.55
2022-08-03T23:37:16.219Z,64.80
2022-08-03T23:53:12.419Z,64.59
2022-08-03T23:57:19.274Z,65.00
